Map

Track Data

SID SEASON NUMBER BASIN SUBBASIN NAME ISO_TIME NATURE LAT LON WMO_WIND WMO_PRES WMO_AGENCY TRACK_TYPE DIST2LAND LANDFALL IFLAG USA_AGENCY USA_ATCF_ID USA_LAT USA_LON USA_RECORD USA_STATUS USA_WIND USA_PRES USA_SSHS USA_R34_NE USA_R34_SE USA_R34_SW USA_R34_NW USA_R50_NE USA_R50_SE USA_R50_SW USA_R50_NW USA_R64_NE USA_R64_SE USA_R64_SW USA_R64_NW USA_POCI USA_ROCI USA_RMW USA_EYE TOKYO_LAT TOKYO_LON TOKYO_GRADE TOKYO_WIND TOKYO_PRES TOKYO_R50_DIR TOKYO_R50_LONG TOKYO_R50_SHORT TOKYO_R30_DIR TOKYO_R30_LONG TOKYO_R30_SHORT TOKYO_LAND CMA_LAT CMA_LON CMA_CAT CMA_WIND CMA_PRES HKO_LAT HKO_LON HKO_CAT HKO_WIND HKO_PRES NEWDELHI_LAT NEWDELHI_LON NEWDELHI_GRADE NEWDELHI_WIND NEWDELHI_PRES NEWDELHI_CI NEWDELHI_DP NEWDELHI_POCI REUNION_LAT REUNION_LON REUNION_TYPE REUNION_WIND REUNION_PRES REUNION_TNUM REUNION_CI REUNION_RMW REUNION_R34_NE REUNION_R34_SE REUNION_R34_SW REUNION_R34_NW REUNION_R50_NE REUNION_R50_SE REUNION_R50_SW REUNION_R50_NW REUNION_R64_NE REUNION_R64_SE REUNION_R64_SW REUNION_R64_NW BOM_LAT BOM_LON BOM_TYPE BOM_WIND BOM_PRES BOM_TNUM BOM_CI BOM_RMW BOM_R34_NE BOM_R34_SE BOM_R34_SW BOM_R34_NW BOM_R50_NE BOM_R50_SE BOM_R50_SW BOM_R50_NW BOM_R64_NE BOM_R64_SE BOM_R64_SW BOM_R64_NW BOM_ROCI BOM_POCI BOM_EYE BOM_POS_METHOD BOM_PRES_METHOD NADI_LAT NADI_LON NADI_CAT NADI_WIND NADI_PRES WELLINGTON_LAT WELLINGTON_LON WELLINGTON_WIND WELLINGTON_PRES DS824_LAT DS824_LON DS824_STAGE DS824_WIND DS824_PRES TD9636_LAT TD9636_LON TD9636_STAGE TD9636_WIND TD9636_PRES TD9635_LAT TD9635_LON TD9635_WIND TD9635_PRES TD9635_ROCI NEUMANN_LAT NEUMANN_LON NEUMANN_CLASS NEUMANN_WIND NEUMANN_PRES MLC_LAT MLC_LON MLC_CLASS MLC_WIND MLC_PRES USA_GUST BOM_GUST BOM_GUST_PER REUNION_GUST REUNION_GUST_PER USA_SEAHGT USA_SEARAD_NE USA_SEARAD_SE USA_SEARAD_SW USA_SEARAD_NW STORM_SPEED STORM_DIR
1958263N19175 1958 85 WP MM JUNE 1958-09-20 00:00:00 TS 19.0000 175.000 1006 tokyo main 2642 2631 _O____________ -1 19.0000 175.000 2 1006 0 0 0 10 2
1958263N19175 1958 85 WP MM JUNE 1958-09-20 03:00:00 TS 19.5000 175.000 main 2631 2622 _P____________ -1 19.5000 175.000 2 1003 0 0 10 1
1958263N19175 1958 85 WP MM JUNE 1958-09-20 06:00:00 TS 20.0000 175.000 1000 tokyo main 2622 2613 _O____________ -1 20.0000 175.000 2 1000 0 0 0 10 1
1958263N19175 1958 85 WP MM JUNE 1958-09-20 09:00:00 TS 20.5000 175.000 main 2613 2605 _P____________ -1 20.5000 175.000 2 1000 0 0 10 1
1958263N19175 1958 85 WP MM JUNE 1958-09-20 12:00:00 TS 21.0000 175.000 1000 tokyo main 2605 2599 _O____________ -1 21.0000 175.000 2 1000 0 0 0 10 1
1958263N19175 1958 85 WP MM JUNE 1958-09-20 15:00:00 TS 21.5000 175.000 main 2599 2594 _P____________ -1 21.5000 175.000 2 997 0 0 10 1
1958263N19175 1958 85 WP MM JUNE 1958-09-20 18:00:00 NR 22.0000 175.000 995 tokyo main 2594 2590 _O____________ -1 22.0000 175.000 9 995 0 0 0 10 1
1958263N19175 1958 85 WP MM JUNE 1958-09-20 21:00:00 NR 22.5000 175.000 main 2590 2587 _P____________ -1 22.5000 175.000 9 992 0 0 10 1
1958263N19175 1958 85 WP MM JUNE 1958-09-21 00:00:00 NR 23.0000 175.000 990 tokyo main 2587 2585 _O____________ -1 23.0000 175.000 9 990 0 0 0 10 1
1958263N19175 1958 85 WP MM JUNE 1958-09-21 03:00:00 NR 23.5000 175.000 main 2585 2584 _P____________ -1 23.5000 175.000 9 990 0 0 10 1
1958263N19175 1958 85 WP MM JUNE 1958-09-21 06:00:00 NR 24.0000 175.000 990 tokyo main 2584 2574 _O____________ -1 24.0000 175.000 9 990 0 0 0 10 4
1958263N19175 1958 85 WP MM JUNE 1958-09-21 09:00:00 NR 24.4997 175.074 main 2574 2574 _P____________ -1 24.4997 175.074 9 995 0 0 10 1
1958263N19175 1958 85 WP MM JUNE 1958-09-21 12:00:00 NR 25.0000 175.000 1000 tokyo main 2586 2586 _O____________ -1 25.0000 175.000 9 1000 0 0 0 11 336
1958263N19175 1958 85 WP MM JUNE 1958-09-21 15:00:00 NR 25.5003 174.575 main 2629 2629 _P____________ -1 25.5003 174.575 9 1000 0 0 14 318
1958263N19175 1958 85 WP MM JUNE 1958-09-21 18:00:00 NR 26.0000 174.000 1000 tokyo main 2692 2692 _O____________ -1 26.0000 174.000 9 1000 0 0 0 14 316
1958263N19175 1958 85 WP MM JUNE 1958-09-21 21:00:00 NR 26.4998 173.500 main 2746 2746 _P____________ -1 26.4998 173.500 9 1001 0 0 13 318
1958263N19175 1958 85 WP MM JUNE 1958-09-22 00:00:00 TS 27.0000 173.000 1002 tokyo main 2800 2800 _O____________ -1 27.0000 173.000 2 1002 0 0 0 14 318
1958263N19175 1958 85 WP MM JUNE 1958-09-22 03:00:00 TS 27.5075 172.477 main 2833 2759 _P____________ -1 27.5075 172.477 2 1002 0 0 13 318
1958263N19175 1958 85 WP MM JUNE 1958-09-22 06:00:00 TS 28.0000 172.000 1002 tokyo main 2759 2691 _O____________ -1 28.0000 172.000 2 1002 0 0 0 13 321
1958263N19175 1958 85 WP MM JUNE 1958-09-22 09:00:00 TS 28.4874 171.583 main 2691 2638 _P____________ -1 28.4874 171.583 2 1004 0 0 11 326
1958263N19175 1958 85 WP MM JUNE 1958-09-22 12:00:00 TS 28.9000 171.300 1006 tokyo main 2638 2605 _O____________ -1 28.9000 171.300 2 1006 0 0 0 8 335
1958263N19175 1958 85 WP MM JUNE 1958-09-22 15:00:00 TS 29.1723 171.212 main 2605 2588 _P____________ -1 29.1723 171.212 2 1006 0 0 5 350
1958263N19175 1958 85 WP MM JUNE 1958-09-22 18:00:00 TS 29.4000 171.200 1006 tokyo main 2588 2556 _O____________ -1 29.4000 171.200 2 1006 0 0 0 5 351
1958263N19175 1958 85 WP MM JUNE 1958-09-22 21:00:00 TS 29.6801 171.125 main 2556 2524 _P____________ -1 29.6801 171.125 2 1009 0 0 6 344
1958263N19175 1958 85 WP MM JUNE 1958-09-23 00:00:00 TS 30.0000 171.000 1012 tokyo main 2524 _O____________ -1 30.0000 171.000 2 1012 0 0 0 7 341

Digital Typhoon Data and Search

About IBTrACS Database

This database is a web-friendly format of International Best Track Archive for Climate Stewardship (IBTrACS), a global best track data archive curated by NOAA dating back to 1842.

Updated: 2021-12-01